Pagina principale
METAR-TAF:

METAR-TAF

Aeroporti :

Aeroporto Internazionale di Nouakchott

Nouakchott, Mauritania

latitudine: 18-18-36N, longitudine: 015-58-11W, altezza: 3 m

Osservazione

Il bollettino è stato emesso 22 minuti fa, alle 13:30 UTC
Vento 14 kt da nord-ovest
Temperature 24°C
Umidità 69%
Pressione 1011 hPa
Visibilità: 8000 m

METAR: GQNO 271330Z 31014KT 8000 NSC 24/18 Q1011 NOSIG

Ora: 13:52 (13:52 UTC)

Previsione

Il bollettino è stato emesso 2 ore e 52 minuti fa, alle 11:00 UTC
Previsione valida dal 27 alle 12 UTC al 28 alle 18 UTC
Vento 12 kt da nord/nord-ovest
Visibilità: 7000 m
Probabilità 40% :
Temporaneamente
dal 28 alle 02 UTC al 28 alle 09 UTC
Nuvoloso ad un'altezza di 800 ft

TAF: GQNO 271100Z 2712/2818 33012KT 7000 NSC PROB40 TEMPO 2802/2809 BKN008

Osservazioni e previsioni meteorologiche di più di 4000 aeroporti (messaggi METAR e TAF).

Le stazioni disponibili sono rappresentate dai dischi gialli e rossi sulla carta.

Puntare il mouse per vedere il nome della stazione.

Clicca sopra per visualizzare le osservazioni e previsioni meteorologiche.

Per cambiare la mappa : fare clic sui pulsanti verdi con una croce nera per ingrandire, il pulsante verde con un trattino per diminuire, o sulla freccia verde per le mappe adiacenti.


METAR-TAF: